createdAt,value
2018-07-11T00:01:42.555Z,18.52
2018-07-11T00:04:10.959Z,18.54
2018-07-11T00:06:39.333Z,18.57
2018-07-11T00:09:07.725Z,18.59
2018-07-11T00:11:36.123Z,18.59
2018-07-11T00:14:04.527Z,18.62
2018-07-11T00:16:32.964Z,18.62
2018-07-11T00:19:01.364Z,18.64
2018-07-11T00:21:29.738Z,18.65
2018-07-11T00:23:58.158Z,18.67
2018-07-11T00:26:26.538Z,18.68
2018-07-11T00:28:54.921Z,18.70
2018-07-11T00:31:23.326Z,18.74
2018-07-11T00:33:51.706Z,18.76
2018-07-11T00:36:20.114Z,18.79
2018-07-11T00:38:48.486Z,18.82
2018-07-11T00:41:16.893Z,18.87
2018-07-11T00:43:45.275Z,18.90
2018-07-11T00:46:16.046Z,18.91
2018-07-11T00:48:44.442Z,18.91
2018-07-11T00:51:12.841Z,18.92
2018-07-11T00:53:41.234Z,18.91
2018-07-11T00:56:09.635Z,18.90
2018-07-11T00:58:40.498Z,18.89
2018-07-11T01:01:15.299Z,18.86
2018-07-11T01:03:53.065Z,18.84
2018-07-11T01:06:21.513Z,18.81
2018-07-11T01:08:53.282Z,18.80
2018-07-11T01:11:22.900Z,18.77
2018-07-11T01:13:51.577Z,18.74
2018-07-11T01:16:20.870Z,18.72
2018-07-11T01:19:09.357Z,18.69
2018-07-11T01:21:38.169Z,18.66
2018-07-11T01:24:06.584Z,18.64
2018-07-11T01:26:36.979Z,18.62
2018-07-11T01:29:05.747Z,18.59
2018-07-11T01:31:34.149Z,18.55
2018-07-11T01:34:02.562Z,18.52
2018-07-11T01:36:31.419Z,18.49
2018-07-11T01:39:00.690Z,18.46
2018-07-11T01:41:29.146Z,18.43
2018-07-11T01:43:57.538Z,18.40
2018-07-11T01:46:30.086Z,18.37
2018-07-11T01:48:58.458Z,18.37
2018-07-11T01:51:38.281Z,18.34
2018-07-11T01:54:06.663Z,18.30
2018-07-11T01:56:35.062Z,18.31
2018-07-11T01:59:03.441Z,18.30
2018-07-11T02:01:31.845Z,18.28
2018-07-11T02:04:00.231Z,18.26
2018-07-11T02:06:28.634Z,18.23
2018-07-11T02:08:57.009Z,18.20
2018-07-11T02:11:25.426Z,18.18
2018-07-11T02:13:53.826Z,18.16
2018-07-11T02:16:22.226Z,18.13
2018-07-11T02:18:50.616Z,18.10
2018-07-11T02:21:19.026Z,18.08
2018-07-11T02:23:47.419Z,18.05
2018-07-11T02:26:15.827Z,18.02
2018-07-11T02:28:44.214Z,18.00
2018-07-11T02:31:12.621Z,17.96
2018-07-11T02:33:41.003Z,17.94
2018-07-11T02:36:09.412Z,17.90
2018-07-11T02:38:37.791Z,17.88
2018-07-11T02:41:06.189Z,17.88
2018-07-11T02:43:34.567Z,17.87
2018-07-11T02:46:02.979Z,17.86
2018-07-11T02:48:31.364Z,17.88
2018-07-11T02:50:59.775Z,17.90
2018-07-11T02:53:28.166Z,17.89
2018-07-11T02:55:56.579Z,17.90
2018-07-11T02:58:24.957Z,17.91
2018-07-11T03:00:53.359Z,17.91
2018-07-11T03:03:21.744Z,17.90
2018-07-11T03:05:50.171Z,17.90
2018-07-11T03:08:18.940Z,17.91
2018-07-11T03:10:47.647Z,17.91
2018-07-11T03:13:19.863Z,17.90
2018-07-11T03:15:48.297Z,17.89
2018-07-11T03:18:16.678Z,17.88
2018-07-11T03:20:45.049Z,17.84
2018-07-11T03:23:13.446Z,17.82
2018-07-11T03:25:41.840Z,17.77
2018-07-11T03:28:10.249Z,17.76
2018-07-11T03:30:38.618Z,17.71
2018-07-11T03:33:07.399Z,17.69
2018-07-11T03:35:35.775Z,17.66
2018-07-11T03:38:04.178Z,17.63
2018-07-11T03:40:32.558Z,17.60
2018-07-11T03:43:00.963Z,17.58
2018-07-11T03:45:29.347Z,17.56
2018-07-11T03:47:57.751Z,17.54
2018-07-11T03:50:26.117Z,17.49
2018-07-11T03:52:54.513Z,17.49
2018-07-11T03:55:22.891Z,17.48
2018-07-11T03:57:51.295Z,17.47
2018-07-11T04:00:19.797Z,17.47
2018-07-11T04:02:48.181Z,17.51
2018-07-11T04:05:16.570Z,17.54
2018-07-11T04:07:44.977Z,17.56
2018-07-11T04:10:13.373Z,17.58
2018-07-11T04:12:41.772Z,17.59
2018-07-11T04:15:10.146Z,17.59
2018-07-11T04:17:38.538Z,17.61
2018-07-11T04:20:07.074Z,17.62
2018-07-11T04:22:35.479Z,17.64
2018-07-11T04:25:03.860Z,17.66
2018-07-11T04:27:32.262Z,17.68
2018-07-11T04:30:00.719Z,17.68
2018-07-11T04:32:29.193Z,17.69
2018-07-11T04:34:57.565Z,17.70
2018-07-11T04:37:25.964Z,17.69
2018-07-11T04:39:54.339Z,17.68
2018-07-11T04:42:22.773Z,17.66
2018-07-11T04:44:51.135Z,17.65
2018-07-11T04:47:19.543Z,17.63
2018-07-11T04:49:47.913Z,17.61
2018-07-11T04:52:16.303Z,17.61
2018-07-11T04:54:44.683Z,17.60
2018-07-11T04:57:13.091Z,17.61
2018-07-11T04:59:41.527Z,17.63
2018-07-11T05:02:09.918Z,17.64
2018-07-11T05:04:38.314Z,17.65
2018-07-11T05:07:06.727Z,17.63
2018-07-11T05:09:35.149Z,17.63
2018-07-11T05:12:03.547Z,17.62
2018-07-11T05:14:31.923Z,17.64
2018-07-11T05:17:00.315Z,17.65
2018-07-11T05:19:28.699Z,17.68
2018-07-11T05:21:57.067Z,17.71
2018-07-11T05:24:25.463Z,17.73
2018-07-11T05:26:53.836Z,17.76
2018-07-11T05:29:22.240Z,17.78
2018-07-11T05:31:50.751Z,17.78
2018-07-11T05:34:19.146Z,17.76
2018-07-11T05:36:47.509Z,17.77
2018-07-11T05:39:15.897Z,17.79
2018-07-11T05:41:44.266Z,17.78
2018-07-11T05:44:12.663Z,17.75
2018-07-11T05:46:41.061Z,17.76
2018-07-11T05:49:09.508Z,17.79
2018-07-11T05:51:37.887Z,17.54
2018-07-11T05:54:06.283Z,17.85
2018-07-11T05:56:34.748Z,17.89
2018-07-11T05:59:03.139Z,17.91
2018-07-11T06:01:31.527Z,17.79
2018-07-11T06:03:59.933Z,17.94
2018-07-11T06:06:28.314Z,17.96
2018-07-11T06:08:56.707Z,17.98
2018-07-11T06:11:25.755Z,18.00
2018-07-11T06:13:54.670Z,18.03
2018-07-11T06:16:23.693Z,18.08
2018-07-11T06:18:52.051Z,18.12
2018-07-11T06:21:23.016Z,18.18
2018-07-11T06:23:51.420Z,18.24
2018-07-11T06:26:19.795Z,18.29
2018-07-11T06:28:48.192Z,18.33
2018-07-11T06:31:16.579Z,18.37
2018-07-11T06:33:45.026Z,18.39
2018-07-11T06:36:13.374Z,18.44
2018-07-11T06:38:41.771Z,18.49
2018-07-11T06:41:10.162Z,18.56
2018-07-11T06:43:38.550Z,18.66
2018-07-11T06:46:07.027Z,18.74
2018-07-11T06:48:35.422Z,18.80
2018-07-11T06:51:03.822Z,18.84
2018-07-11T06:53:32.228Z,18.85
2018-07-11T06:56:00.646Z,18.85
2018-07-11T06:58:29.055Z,18.84
2018-07-11T07:00:57.482Z,18.83
2018-07-11T07:03:25.878Z,18.81
2018-07-11T07:05:54.275Z,18.77
2018-07-11T07:08:22.666Z,18.76
2018-07-11T07:10:51.061Z,18.72
2018-07-11T07:13:19.506Z,18.71
2018-07-11T07:15:47.919Z,18.70
2018-07-11T07:18:16.343Z,18.70
2018-07-11T07:20:44.717Z,18.70
2018-07-11T07:23:13.089Z,18.69
2018-07-11T07:25:41.509Z,18.69
2018-07-11T07:28:09.888Z,18.70
2018-07-11T07:30:38.517Z,18.74
2018-07-11T07:33:06.895Z,18.76
2018-07-11T07:35:35.311Z,18.80
2018-07-11T07:38:03.691Z,18.82
2018-07-11T07:40:32.095Z,18.87
2018-07-11T07:43:00.471Z,18.90
2018-07-11T07:45:28.964Z,18.94
2018-07-11T07:47:58.978Z,18.95
2018-07-11T07:50:27.380Z,18.95
2018-07-11T07:52:55.892Z,18.94
2018-07-11T07:55:24.222Z,18.90
2018-07-11T07:57:52.602Z,18.88
2018-07-11T08:00:21.030Z,18.87
2018-07-11T08:02:49.498Z,18.83
2018-07-11T08:05:17.886Z,18.81
2018-07-11T08:07:46.258Z,18.79
2018-07-11T08:10:14.675Z,18.80
2018-07-11T08:12:43.104Z,18.84
2018-07-11T08:15:11.474Z,18.90
2018-07-11T08:17:39.870Z,18.97
2018-07-11T08:20:08.298Z,19.05
2018-07-11T08:23:17.790Z,19.15
2018-07-11T08:25:58.678Z,19.27
2018-07-11T08:29:38.181Z,19.36
2018-07-11T08:34:24.003Z,19.42
2018-07-11T08:37:08.482Z,19.49
2018-07-11T08:41:03.899Z,19.57
2018-07-11T08:43:52.311Z,19.72
2018-07-11T08:47:04.667Z,19.82
2018-07-11T08:49:44.438Z,19.88
2018-07-11T08:52:31.858Z,19.90
2018-07-11T08:55:09.819Z,19.89
2018-07-11T08:58:47.502Z,19.93
2018-07-11T09:02:32.783Z,20.02
2018-07-11T09:07:17.917Z,20.22
2018-07-11T09:10:15.626Z,20.48
2018-07-11T09:13:55.530Z,20.63
2018-07-11T09:17:18.694Z,20.78
2018-07-11T09:21:03.230Z,20.88
2018-07-11T09:24:52.230Z,20.93
2018-07-11T09:27:20.631Z,20.96
2018-07-11T09:29:49.469Z,20.99
2018-07-11T09:32:17.893Z,21.05
2018-07-11T09:34:46.638Z,21.11
2018-07-11T09:37:15.034Z,21.22
2018-07-11T09:39:43.915Z,21.34
2018-07-11T09:42:12.305Z,21.49
2018-07-11T09:44:40.869Z,21.61
2018-07-11T09:47:29.349Z,21.72
2018-07-11T09:49:58.015Z,21.81
2018-07-11T09:52:26.425Z,21.93
2018-07-11T09:54:54.809Z,22.00
2018-07-11T09:57:24.241Z,22.08
2018-07-11T09:59:52.658Z,22.09
2018-07-11T10:02:21.064Z,22.07
2018-07-11T10:04:49.445Z,22.07
2018-07-11T10:07:17.814Z,22.05
2018-07-11T10:09:46.239Z,22.00
2018-07-11T10:12:14.618Z,21.96
2018-07-11T10:14:43.121Z,21.94
2018-07-11T10:17:11.495Z,21.91
2018-07-11T10:19:39.899Z,21.90
2018-07-11T10:22:08.291Z,21.89
2018-07-11T10:24:36.682Z,21.88
2018-07-11T10:27:05.107Z,21.93
2018-07-11T10:29:33.530Z,21.94
2018-07-11T10:32:01.906Z,21.95
2018-07-11T10:34:30.298Z,21.98
2018-07-11T10:36:58.662Z,21.99
2018-07-11T10:39:27.059Z,21.97
2018-07-11T10:41:55.440Z,21.95
2018-07-11T10:44:23.835Z,21.96
2018-07-11T10:46:56.583Z,21.97
2018-07-11T10:49:25.010Z,22.00
2018-07-11T10:51:54.177Z,22.06
2018-07-11T10:54:22.572Z,22.12
2018-07-11T10:56:50.967Z,22.16
2018-07-11T10:59:19.359Z,22.15
2018-07-11T11:01:47.739Z,22.12
2018-07-11T11:04:19.477Z,22.09
2018-07-11T11:06:47.853Z,22.04
2018-07-11T11:09:16.251Z,21.97
2018-07-11T11:11:44.662Z,21.94
2018-07-11T11:14:13.062Z,21.88
2018-07-11T11:16:41.451Z,21.81
2018-07-11T11:19:09.841Z,21.74
2018-07-11T11:21:38.236Z,21.68
2018-07-11T11:24:07.049Z,21.67
2018-07-11T11:26:35.417Z,21.65
2018-07-11T11:29:03.818Z,21.66
2018-07-11T11:31:32.193Z,21.67
2018-07-11T11:34:00.623Z,21.71
2018-07-11T11:36:28.989Z,21.74
2018-07-11T11:38:57.386Z,21.83
2018-07-11T11:41:25.776Z,21.89
2018-07-11T11:43:54.189Z,21.93
2018-07-11T11:46:22.562Z,21.95
2018-07-11T11:48:50.953Z,21.99
2018-07-11T11:51:19.346Z,22.04
2018-07-11T11:53:47.713Z,22.06
2018-07-11T11:56:16.099Z,22.09
2018-07-11T11:58:44.470Z,22.11
2018-07-11T12:01:12.857Z,22.13
2018-07-11T12:03:41.225Z,22.14
2018-07-11T12:06:09.661Z,22.16
2018-07-11T12:08:38.035Z,22.20
2018-07-11T12:11:06.541Z,22.26
2018-07-11T12:13:34.926Z,22.31
2018-07-11T12:16:05.132Z,22.36
2018-07-11T12:18:33.501Z,22.41
2018-07-11T12:21:01.982Z,22.46
2018-07-11T12:23:30.322Z,22.48
2018-07-11T12:26:04.770Z,22.52
2018-07-11T12:28:33.147Z,22.53
2018-07-11T12:31:01.695Z,22.55
2018-07-11T12:33:30.348Z,22.55
2018-07-11T12:35:58.786Z,22.55
2018-07-11T12:38:27.363Z,22.52
2018-07-11T12:40:56.382Z,22.49
2018-07-11T12:43:25.477Z,22.45
2018-07-11T12:45:53.866Z,22.38
2018-07-11T12:48:27.599Z,22.31
2018-07-11T12:50:56.342Z,22.24
2018-07-11T12:53:24.721Z,22.17
2018-07-11T12:55:53.129Z,22.13
2018-07-11T12:58:21.535Z,22.09
2018-07-11T13:00:50.473Z,22.02
2018-07-11T13:03:19.242Z,21.96
2018-07-11T13:05:47.634Z,21.89
2018-07-11T13:08:18.250Z,21.81
2018-07-11T13:10:46.674Z,21.73
2018-07-11T13:13:15.068Z,21.66
2018-07-11T13:15:43.462Z,21.64
2018-07-11T13:18:11.856Z,21.64
2018-07-11T13:20:40.262Z,21.65
2018-07-11T13:23:08.641Z,21.64
2018-07-11T13:25:37.091Z,21.65
2018-07-11T13:28:05.463Z,21.61
2018-07-11T13:30:33.861Z,21.59
2018-07-11T13:33:02.242Z,21.57
2018-07-11T13:35:30.774Z,21.55
2018-07-11T13:37:59.158Z,21.52
2018-07-11T13:40:27.558Z,21.47
2018-07-11T13:42:55.933Z,21.43
2018-07-11T13:45:24.367Z,21.40
2018-07-11T13:47:58.259Z,21.34
2018-07-11T13:50:26.670Z,21.29
2018-07-11T13:52:55.331Z,21.26
2018-07-11T13:55:23.741Z,21.24
2018-07-11T13:57:52.130Z,21.23
2018-07-11T14:00:20.676Z,21.22
2018-07-11T14:02:49.770Z,21.22
2018-07-11T14:05:18.151Z,21.20
2018-07-11T14:07:46.562Z,21.13
2018-07-11T14:10:14.973Z,21.07
2018-07-11T14:12:43.444Z,20.99
2018-07-11T14:15:11.830Z,20.90
2018-07-11T14:17:40.719Z,20.83
2018-07-11T14:20:09.700Z,20.74
2018-07-11T14:22:38.870Z,20.68
2018-07-11T14:25:07.331Z,20.68
2018-07-11T14:27:42.717Z,20.73
2018-07-11T14:30:11.567Z,20.79
2018-07-11T14:32:45.545Z,20.85
2018-07-11T14:35:14.567Z,20.91
2018-07-11T14:37:42.982Z,20.95
2018-07-11T14:40:11.525Z,21.04
2018-07-11T14:42:40.187Z,21.13
2018-07-11T14:45:08.605Z,21.22
2018-07-11T14:47:42.253Z,21.28
2018-07-11T14:50:10.632Z,21.32
2018-07-11T14:52:39.134Z,21.39
2018-07-11T14:55:07.509Z,21.44
2018-07-11T14:57:36.147Z,21.53
2018-07-11T15:00:04.738Z,21.59
2018-07-11T15:02:33.142Z,21.63
2018-07-11T15:05:01.546Z,21.66
2018-07-11T15:07:29.977Z,21.69
2018-07-11T15:09:58.381Z,21.74
2018-07-11T15:12:26.786Z,21.75
2018-07-11T15:14:55.158Z,21.77
2018-07-11T15:17:23.789Z,21.84
2018-07-11T15:19:52.353Z,21.90
2018-07-11T15:22:20.751Z,22.03
2018-07-11T15:24:49.705Z,22.05
2018-07-11T15:27:18.121Z,22.05
2018-07-11T15:29:46.501Z,22.00
2018-07-11T15:32:14.908Z,21.96
2018-07-11T15:34:43.559Z,21.92
2018-07-11T15:37:12.166Z,21.87
2018-07-11T15:39:40.954Z,21.80
2018-07-11T15:42:09.566Z,21.77
2018-07-11T15:44:37.949Z,21.73
2018-07-11T15:47:06.699Z,21.72
2018-07-11T15:49:35.087Z,21.68
2018-07-11T15:52:03.506Z,21.62
2018-07-11T15:54:33.706Z,21.55
2018-07-11T15:57:03.047Z,21.50
2018-07-11T15:59:33.606Z,21.41
2018-07-11T16:02:01.996Z,21.34
2018-07-11T16:04:36.798Z,21.26
2018-07-11T16:07:07.504Z,21.17
2018-07-11T16:09:47.447Z,21.09
2018-07-11T16:12:15.950Z,21.10
2018-07-11T16:14:45.371Z,21.22
2018-07-11T16:17:13.811Z,21.27
2018-07-11T16:19:42.201Z,21.30
2018-07-11T16:22:10.618Z,21.31
2018-07-11T16:24:39.010Z,21.30
2018-07-11T16:27:07.385Z,21.36
2018-07-11T16:29:35.773Z,21.38
2018-07-11T16:32:04.143Z,21.51
2018-07-11T16:34:32.647Z,21.76
2018-07-11T16:37:01.018Z,21.85
2018-07-11T16:39:29.410Z,21.91
2018-07-11T16:41:57.787Z,22.09
2018-07-11T16:44:26.187Z,22.39
2018-07-11T16:46:54.554Z,22.77
2018-07-11T16:49:22.954Z,23.11
2018-07-11T16:51:51.334Z,23.18
2018-07-11T16:54:20.632Z,23.10
2018-07-11T16:56:49.015Z,22.95
2018-07-11T16:59:17.617Z,22.78
2018-07-11T17:01:53.169Z,22.62
2018-07-11T17:04:23.713Z,22.57
2018-07-11T17:06:52.633Z,22.71
2018-07-11T17:09:21.043Z,22.68
2018-07-11T17:11:51.594Z,22.69
2018-07-11T17:14:22.159Z,22.82
2018-07-11T17:16:59.867Z,22.76
2018-07-11T17:19:43.081Z,22.69
2018-07-11T17:22:11.467Z,22.58
2018-07-11T17:24:43.719Z,22.46
2018-07-11T17:27:13.578Z,22.33
2018-07-11T17:29:42.131Z,22.19
2018-07-11T17:32:11.770Z,22.00
2018-07-11T17:34:40.939Z,21.85
2018-07-11T17:37:11.294Z,21.68
2018-07-11T17:39:48.569Z,21.54
2018-07-11T17:42:17.482Z,21.36
2018-07-11T17:44:49.506Z,21.25
2018-07-11T17:47:19.258Z,21.13
2018-07-11T17:49:54.323Z,21.03
2018-07-11T17:52:25.125Z,20.95
2018-07-11T17:55:13.504Z,20.90
2018-07-11T17:58:00.210Z,20.88
2018-07-11T18:01:04.977Z,20.87
2018-07-11T18:04:42.274Z,20.85
2018-07-11T18:07:14.821Z,20.82
2018-07-11T18:09:56.240Z,20.79
2018-07-11T18:12:27.254Z,20.77
2018-07-11T18:17:07.102Z,20.78
2018-07-11T18:20:16.710Z,20.77
2018-07-11T18:23:23.553Z,20.75
2018-07-11T18:26:26.772Z,20.72
2018-07-11T18:29:09.458Z,20.67
2018-07-11T18:32:50.771Z,20.64
2018-07-11T18:35:30.817Z,20.60
2018-07-11T18:38:23.977Z,20.58
2018-07-11T18:42:07.289Z,20.58
2018-07-11T18:44:50.364Z,20.56
2018-07-11T18:47:59.172Z,20.54
2018-07-11T18:50:35.538Z,20.53
2018-07-11T18:53:13.283Z,20.52
2018-07-11T18:56:26.251Z,20.53
2018-07-11T18:59:09.287Z,20.53
2018-07-11T19:01:48.555Z,20.53
2018-07-11T19:04:34.831Z,20.51
2018-07-11T19:07:12.477Z,20.52
2018-07-11T19:09:50.585Z,20.49
2018-07-11T19:12:34.049Z,20.47
2018-07-11T19:15:07.447Z,20.44
2018-07-11T19:19:51.511Z,20.42
2018-07-11T19:22:45.667Z,20.32
2018-07-11T19:25:34.227Z,20.25
2018-07-11T19:28:13.655Z,20.20
2018-07-11T19:30:55.657Z,20.18
2018-07-11T19:33:35.526Z,20.15
2018-07-11T19:36:14.721Z,20.11
2018-07-11T19:38:52.330Z,20.08
2018-07-11T19:41:26.237Z,20.07
2018-07-11T19:44:05.810Z,20.05
2018-07-11T19:46:42.866Z,20.03
2018-07-11T19:49:24.932Z,20.00
2018-07-11T19:52:00.311Z,19.97
2018-07-11T19:54:35.882Z,19.95
2018-07-11T19:57:04.304Z,19.93
2018-07-11T19:59:32.724Z,19.90
2018-07-11T20:02:01.246Z,19.84
2018-07-11T20:04:29.641Z,19.78
2018-07-11T20:06:58.087Z,19.72
2018-07-11T20:09:26.461Z,19.65
2018-07-11T20:11:54.890Z,19.60
2018-07-11T20:14:23.289Z,19.56
2018-07-11T20:16:51.911Z,19.52
2018-07-11T20:19:20.316Z,19.49
2018-07-11T20:21:48.720Z,19.45
2018-07-11T20:24:17.139Z,19.41
2018-07-11T20:26:45.559Z,19.36
2018-07-11T20:29:13.954Z,19.34
2018-07-11T20:31:42.355Z,19.30
2018-07-11T20:34:10.730Z,19.27
2018-07-11T20:36:39.126Z,19.25
2018-07-11T20:39:07.528Z,19.23
2018-07-11T20:41:35.922Z,19.23
2018-07-11T20:44:04.408Z,19.21
2018-07-11T20:46:33.424Z,19.21
2018-07-11T20:49:06.649Z,19.20
2018-07-11T20:51:35.037Z,19.17
2018-07-11T20:54:03.518Z,19.17
2018-07-11T20:56:31.988Z,19.15
2018-07-11T20:59:11.583Z,19.14
2018-07-11T21:02:50.967Z,19.13
2018-07-11T21:08:09.639Z,19.10
2018-07-11T21:10:47.405Z,19.03
2018-07-11T21:15:30.741Z,19.01
2018-07-11T21:18:16.506Z,18.98
2018-07-11T21:20:44.913Z,18.97
2018-07-11T21:23:13.305Z,18.97
2018-07-11T21:25:41.702Z,18.97
2018-07-11T21:28:10.099Z,18.98
2018-07-11T21:30:38.465Z,18.98
2018-07-11T21:33:06.875Z,18.97
2018-07-11T21:35:35.551Z,18.96
2018-07-11T21:38:03.954Z,18.93
2018-07-11T21:40:32.352Z,18.91
2018-07-11T21:43:00.729Z,18.88
2018-07-11T21:45:29.141Z,18.85
2018-07-11T21:47:57.508Z,18.81
2018-07-11T21:50:25.947Z,18.75
2018-07-11T21:52:54.323Z,18.70
2018-07-11T21:55:22.713Z,18.65
2018-07-11T21:57:51.114Z,18.61
2018-07-11T22:00:30.815Z,18.56
2018-07-11T22:02:59.182Z,18.51
2018-07-11T22:05:28.542Z,18.46
2018-07-11T22:07:57.065Z,18.41
2018-07-11T22:10:25.673Z,18.37
2018-07-11T22:12:54.045Z,18.33
2018-07-11T22:15:22.463Z,18.28
2018-07-11T22:18:02.267Z,18.25
2018-07-11T22:20:31.174Z,18.20
2018-07-11T22:22:58.502Z,18.16
2018-07-11T22:25:25.823Z,18.11
2018-07-11T22:27:53.153Z,18.07
2018-07-11T22:30:20.478Z,18.04
2018-07-11T22:32:47.813Z,18.01
2018-07-11T22:35:15.395Z,17.99
2018-07-11T22:37:42.974Z,17.98
2018-07-11T22:40:10.313Z,17.97
2018-07-11T22:42:38.123Z,17.96
2018-07-11T22:45:05.437Z,17.94
2018-07-11T22:47:33.113Z,17.92
2018-07-11T22:50:02.277Z,17.91
2018-07-11T22:52:31.554Z,17.89
2018-07-11T22:54:58.837Z,17.90
2018-07-11T22:57:26.150Z,17.89
2018-07-11T22:59:53.518Z,17.90
2018-07-11T23:02:20.842Z,17.91
2018-07-11T23:04:48.188Z,17.92
2018-07-11T23:07:15.505Z,17.92
2018-07-11T23:09:42.844Z,17.90
2018-07-11T23:12:10.157Z,17.89
2018-07-11T23:14:39.127Z,17.88
2018-07-11T23:17:06.439Z,17.85
2018-07-11T23:19:33.779Z,17.83
2018-07-11T23:22:01.107Z,17.80
2018-07-11T23:24:28.450Z,17.79
2018-07-11T23:26:55.771Z,17.80
2018-07-11T23:29:23.106Z,17.81
2018-07-11T23:31:50.418Z,17.81
2018-07-11T23:34:17.754Z,17.84
2018-07-11T23:36:45.067Z,17.84
2018-07-11T23:39:12.698Z,17.88
2018-07-11T23:41:40.011Z,17.89
2018-07-11T23:44:07.361Z,17.91
2018-07-11T23:46:34.678Z,17.90
2018-07-11T23:49:02.017Z,17.90
2018-07-11T23:51:29.330Z,17.92
2018-07-11T23:53:56.677Z,17.92
2018-07-11T23:56:23.997Z,17.92
2018-07-11T23:58:51.687Z,17.93
